createdAt,value
2019-05-13T00:01:56.485Z,83.70
2019-05-13T00:04:24.244Z,83.70
2019-05-13T00:06:54.433Z,84.10
2019-05-13T00:09:18.430Z,84.40
2019-05-13T00:11:44.534Z,83.90
2019-05-13T00:14:10.726Z,84.00
2019-05-13T00:16:36.938Z,84.40
2019-05-13T00:19:04.200Z,84.70
2019-05-13T00:21:30.649Z,85.70
2019-05-13T00:23:56.911Z,86.10
2019-05-13T00:26:24.446Z,85.80
2019-05-13T00:28:50.681Z,85.30
2019-05-13T00:31:16.810Z,86.20
2019-05-13T00:33:44.434Z,85.40
2019-05-13T00:36:11.402Z,85.90
2019-05-13T00:38:37.570Z,86.10
2019-05-13T00:41:03.905Z,85.20
2019-05-13T00:43:30.168Z,85.00
2019-05-13T00:45:56.523Z,84.90
2019-05-13T00:48:23.359Z,84.60
2019-05-13T00:50:49.811Z,85.10
2019-05-13T00:53:16.201Z,85.00
2019-05-13T00:55:44.218Z,84.60
2019-05-13T00:58:13.727Z,84.40
2019-05-13T01:00:39.354Z,84.90
2019-05-13T01:03:05.679Z,84.70
2019-05-13T01:05:33.786Z,84.70
2019-05-13T01:07:59.879Z,85.00
2019-05-13T01:10:25.981Z,85.40
2019-05-13T01:12:53.967Z,85.30
2019-05-13T01:15:20.283Z,85.30
2019-05-13T01:17:46.402Z,85.70
2019-05-13T01:20:14.395Z,85.90
2019-05-13T01:22:40.702Z,86.30
2019-05-13T01:25:07.183Z,87.40
2019-05-13T01:27:33.532Z,87.50
2019-05-13T01:30:00.110Z,87.00
2019-05-13T01:32:26.165Z,87.70
2019-05-13T01:34:53.856Z,86.80
2019-05-13T01:37:20.210Z,87.10
2019-05-13T01:39:46.333Z,88.30
2019-05-13T01:42:13.728Z,88.10
2019-05-13T01:44:40.054Z,87.90
2019-05-13T01:47:06.115Z,88.30
2019-05-13T01:49:33.691Z,89.10
2019-05-13T01:52:00.074Z,88.90
2019-05-13T01:54:26.496Z,88.60
2019-05-13T01:56:53.508Z,88.30
2019-05-13T01:59:19.767Z,88.90
2019-05-13T02:01:45.868Z,89.50
2019-05-13T02:04:14.048Z,90.30
2019-05-13T02:06:40.036Z,90.50
2019-05-13T02:09:06.432Z,90.70
2019-05-13T02:11:34.165Z,91.00
2019-05-13T02:14:00.407Z,90.90
2019-05-13T02:16:26.510Z,91.30
2019-05-13T02:18:53.669Z,91.20
2019-05-13T02:21:20.085Z,91.60
2019-05-13T02:23:46.135Z,91.50
2019-05-13T02:26:13.553Z,91.30
2019-05-13T02:28:39.784Z,91.50
2019-05-13T02:31:05.939Z,91.50
2019-05-13T02:33:33.912Z,91.40
2019-05-13T02:36:02.887Z,91.30
2019-05-13T02:38:30.824Z,91.40
2019-05-13T02:40:56.346Z,91.20
2019-05-13T02:43:23.867Z,91.30
2019-05-13T02:45:53.179Z,91.60
2019-05-13T02:48:22.860Z,91.20
2019-05-13T02:50:47.174Z,91.50
2019-05-13T02:53:13.832Z,91.50
2019-05-13T02:55:43.422Z,91.70
2019-05-13T02:58:08.298Z,91.50
2019-05-13T03:00:34.526Z,91.50
2019-05-13T03:03:03.261Z,91.30
2019-05-13T03:05:28.605Z,91.40
2019-05-13T03:07:54.764Z,92.10
2019-05-13T03:10:22.421Z,92.10
2019-05-13T03:12:48.642Z,92.10
2019-05-13T03:15:16.212Z,92.20
2019-05-13T03:17:53.050Z,92.40
2019-05-13T03:20:22.418Z,92.20
2019-05-13T03:22:47.096Z,92.30
2019-05-13T03:25:13.307Z,92.50
2019-05-13T03:27:42.546Z,92.60
2019-05-13T03:30:07.776Z,92.50
2019-05-13T03:32:42.197Z,92.50
2019-05-13T03:35:07.175Z,92.60
2019-05-13T03:37:34.798Z,92.50
2019-05-13T03:40:03.410Z,92.40
2019-05-13T03:42:33.512Z,92.40
2019-05-13T03:45:02.742Z,92.30
2019-05-13T03:47:28.651Z,92.20
2019-05-13T03:49:57.311Z,92.70
2019-05-13T03:52:23.429Z,93.10
2019-05-13T03:54:52.074Z,93.30
2019-05-13T03:57:18.086Z,92.90
2019-05-13T03:59:44.757Z,92.70
2019-05-13T04:02:12.973Z,92.60
2019-05-13T04:04:42.106Z,92.60
2019-05-13T04:07:07.317Z,92.60
2019-05-13T04:09:36.404Z,92.70
2019-05-13T04:12:03.250Z,92.90
2019-05-13T04:14:33.419Z,93.30
2019-05-13T04:17:01.909Z,93.40
2019-05-13T04:19:27.200Z,93.70
2019-05-13T04:21:53.261Z,93.70
2019-05-13T04:24:22.594Z,93.80
2019-05-13T04:26:47.537Z,93.70
2019-05-13T04:29:13.738Z,93.70
2019-05-13T04:31:42.364Z,93.90
2019-05-13T04:34:08.022Z,93.80
2019-05-13T04:36:34.388Z,93.60
2019-05-13T04:39:03.264Z,93.50
2019-05-13T04:41:28.946Z,93.30
2019-05-13T04:43:55.100Z,93.40
2019-05-13T04:46:22.786Z,93.50
2019-05-13T04:48:52.740Z,93.10
2019-05-13T04:51:17.545Z,93.70
2019-05-13T04:53:43.653Z,93.40
2019-05-13T04:56:13.268Z,93.20
2019-05-13T04:58:38.138Z,93.20
2019-05-13T05:01:23.987Z,93.10
2019-05-13T05:03:56.879Z,93.00
2019-05-13T05:06:33.314Z,92.70
2019-05-13T05:09:08.169Z,92.70
2019-05-13T05:11:57.744Z,92.20
2019-05-13T05:14:33.661Z,92.00
2019-05-13T05:17:22.527Z,92.10
2019-05-13T05:20:06.986Z,92.20
2019-05-13T05:22:51.150Z,91.80
2019-05-13T05:25:41.742Z,91.70
2019-05-13T05:28:17.865Z,91.80
2019-05-13T05:30:51.903Z,91.90
2019-05-13T05:33:41.210Z,91.60
2019-05-13T05:36:26.238Z,91.40
2019-05-13T05:39:01.598Z,91.20
2019-05-13T05:41:28.903Z,91.20
2019-05-13T05:43:55.819Z,90.90
2019-05-13T05:46:23.366Z,91.00
2019-05-13T05:48:53.001Z,90.70
2019-05-13T05:51:22.113Z,90.40
2019-05-13T05:53:51.683Z,90.30
2019-05-13T05:56:21.866Z,89.20
2019-05-13T05:58:48.851Z,89.40
2019-05-13T06:01:15.405Z,87.60
2019-05-13T06:03:43.206Z,88.40
2019-05-13T06:06:12.380Z,87.70
2019-05-13T06:08:41.115Z,88.50
2019-05-13T06:11:07.226Z,87.30
2019-05-13T06:13:35.227Z,86.60
2019-05-13T06:16:01.881Z,85.90
2019-05-13T06:18:28.104Z,86.30
2019-05-13T06:20:54.272Z,86.10
2019-05-13T06:23:22.139Z,85.10
2019-05-13T06:25:48.357Z,84.10
2019-05-13T06:28:14.404Z,85.10
2019-05-13T06:30:41.443Z,84.10
2019-05-13T06:33:07.758Z,83.30
2019-05-13T06:35:33.950Z,83.60
2019-05-13T06:38:01.412Z,82.80
2019-05-13T06:40:27.621Z,82.30
2019-05-13T06:42:53.878Z,81.70
2019-05-13T06:45:21.649Z,81.50
2019-05-13T06:47:48.016Z,81.30
2019-05-13T06:50:14.307Z,81.60
2019-05-13T06:52:42.486Z,81.60
2019-05-13T06:55:11.397Z,81.40
2019-05-13T06:57:37.010Z,81.80
2019-05-13T07:00:07.356Z,81.30
2019-05-13T07:02:33.429Z,80.20
2019-05-13T07:05:02.061Z,80.60
2019-05-13T07:07:27.777Z,79.20
2019-05-13T07:09:53.917Z,79.40
2019-05-13T07:12:21.915Z,79.50
2019-05-13T07:14:48.123Z,79.80
2019-05-13T07:17:14.217Z,80.00
2019-05-13T07:19:41.433Z,79.30
2019-05-13T07:22:07.889Z,78.90
2019-05-13T07:24:33.933Z,77.20
2019-05-13T07:27:01.843Z,77.10
2019-05-13T07:29:28.194Z,77.60
2019-05-13T07:31:54.318Z,77.80
2019-05-13T07:34:24.530Z,76.30
2019-05-13T07:36:48.627Z,77.30
2019-05-13T07:39:14.977Z,77.00
2019-05-13T07:41:43.176Z,76.00
2019-05-13T07:44:11.655Z,75.40
2019-05-13T07:46:37.007Z,74.20
2019-05-13T07:49:03.223Z,74.70
2019-05-13T07:51:31.654Z,75.20
2019-05-13T07:53:57.278Z,72.20
2019-05-13T07:56:23.331Z,72.40
2019-05-13T07:58:52.132Z,71.60
2019-05-13T08:01:17.355Z,70.80
2019-05-13T08:03:43.426Z,71.10
2019-05-13T08:06:11.152Z,72.50
2019-05-13T08:08:37.655Z,73.00
2019-05-13T08:11:03.772Z,72.00
2019-05-13T08:13:31.407Z,70.90
2019-05-13T08:15:57.735Z,70.40
2019-05-13T08:18:23.841Z,70.60
2019-05-13T08:20:52.292Z,70.10
2019-05-13T08:23:18.016Z,70.90
2019-05-13T08:25:44.181Z,70.20
2019-05-13T08:28:12.235Z,69.50
2019-05-13T08:30:38.747Z,66.90
2019-05-13T08:33:05.046Z,67.90
2019-05-13T08:35:31.590Z,68.10
2019-05-13T08:37:57.853Z,67.60
2019-05-13T08:40:24.025Z,67.70
2019-05-13T08:42:51.979Z,68.40
2019-05-13T08:45:18.460Z,67.50
2019-05-13T08:47:44.635Z,65.30
2019-05-13T08:50:12.175Z,65.70
2019-05-13T08:52:42.015Z,62.60
2019-05-13T08:55:07.645Z,57.90
2019-05-13T08:57:33.749Z,59.20
2019-05-13T09:00:05.098Z,60.70
2019-05-13T09:02:27.868Z,58.40
2019-05-13T09:04:54.047Z,58.30
2019-05-13T09:07:23.897Z,57.30
2019-05-13T09:09:48.328Z,57.10
2019-05-13T09:12:28.571Z,56.70
2019-05-13T09:14:42.402Z,58.30
2019-05-13T09:17:08.563Z,56.50
2019-05-13T09:19:34.646Z,53.40
2019-05-13T09:22:03.036Z,48.40
2019-05-13T09:24:34.237Z,49.20
2019-05-13T09:26:56.862Z,47.50
2019-05-13T09:29:22.926Z,46.90
2019-05-13T09:31:51.668Z,43.10
2019-05-13T09:34:17.024Z,43.30
2019-05-13T09:36:43.212Z,40.60
2019-05-13T09:39:09.468Z,40.80
2019-05-13T09:41:40.707Z,41.50
2019-05-13T09:44:03.717Z,42.10
2019-05-13T09:46:31.877Z,41.60
2019-05-13T09:49:11.779Z,41.90
2019-05-13T09:51:25.941Z,43.90
2019-05-13T09:53:52.162Z,42.40
2019-05-13T09:56:18.362Z,41.50
2019-05-13T09:58:44.441Z,42.10
2019-05-13T10:01:12.359Z,40.70
2019-05-13T10:03:53.294Z,38.20
2019-05-13T10:06:06.719Z,38.90
2019-05-13T10:08:33.048Z,39.50
2019-05-13T10:11:01.632Z,40.30
2019-05-13T10:13:27.759Z,39.30
2019-05-13T10:15:53.921Z,39.80
2019-05-13T10:18:21.916Z,41.00
2019-05-13T10:20:52.883Z,38.00
2019-05-13T10:23:22.108Z,36.60
2019-05-13T10:25:52.160Z,37.80
2019-05-13T10:28:21.615Z,37.80
2019-05-13T10:30:47.005Z,36.00
2019-05-13T10:33:13.454Z,36.40
2019-05-13T10:35:42.881Z,37.60
2019-05-13T10:38:13.132Z,37.10
2019-05-13T10:40:38.495Z,36.60
2019-05-13T10:43:05.346Z,37.50
2019-05-13T10:45:33.226Z,38.30
2019-05-13T10:48:02.574Z,37.30
2019-05-13T10:50:27.802Z,37.90
2019-05-13T10:52:54.314Z,35.40
2019-05-13T10:55:21.546Z,35.60
2019-05-13T10:57:47.806Z,36.20
2019-05-13T11:00:14.305Z,36.40
2019-05-13T11:02:42.324Z,37.20
2019-05-13T11:05:08.611Z,37.70
2019-05-13T11:07:34.889Z,37.70
2019-05-13T11:10:02.371Z,35.90
2019-05-13T11:12:28.975Z,37.80
2019-05-13T11:14:55.461Z,39.30
2019-05-13T11:17:29.660Z,39.50
2019-05-13T11:19:49.772Z,37.80
2019-05-13T11:22:15.840Z,38.30
2019-05-13T11:24:43.176Z,38.50
2019-05-13T11:27:11.803Z,38.20
2019-05-13T11:29:37.620Z,37.30
2019-05-13T11:32:04.172Z,38.40
2019-05-13T11:34:32.839Z,38.90
2019-05-13T11:36:58.273Z,39.10
2019-05-13T11:39:24.358Z,38.20
2019-05-13T11:41:50.550Z,37.00
2019-05-13T11:44:17.166Z,36.80
2019-05-13T11:46:43.435Z,37.20
2019-05-13T11:49:11.770Z,37.70
2019-05-13T11:51:37.558Z,37.30
2019-05-13T11:54:03.927Z,37.40
2019-05-13T11:56:33.399Z,36.90
2019-05-13T11:58:57.971Z,36.90
2019-05-13T12:01:24.147Z,36.80
2019-05-13T12:03:53.032Z,36.90
2019-05-13T12:06:18.512Z,37.30
2019-05-13T12:08:51.065Z,37.10
2019-05-13T12:11:13.906Z,36.70
2019-05-13T12:13:42.625Z,36.40
2019-05-13T12:16:08.431Z,36.50
2019-05-13T12:18:34.664Z,35.50
2019-05-13T12:21:03.387Z,34.70
2019-05-13T12:23:29.196Z,36.10
2019-05-13T12:25:55.358Z,36.70
2019-05-13T12:28:21.457Z,34.80
2019-05-13T12:30:47.921Z,32.30
2019-05-13T12:33:14.025Z,33.20
2019-05-13T12:35:40.090Z,34.40
2019-05-13T12:38:06.150Z,34.60
2019-05-13T12:40:33.785Z,33.80
2019-05-13T12:43:01.959Z,33.90
2019-05-13T12:45:28.575Z,35.10
2019-05-13T12:47:54.699Z,36.90
2019-05-13T12:50:23.757Z,33.40
2019-05-13T12:52:51.483Z,33.70
2019-05-13T12:55:17.583Z,32.60
2019-05-13T12:57:43.622Z,33.40
2019-05-13T13:00:12.470Z,33.40
2019-05-13T13:02:37.913Z,34.30
2019-05-13T13:05:14.062Z,33.70
2019-05-13T13:07:34.945Z,34.60
2019-05-13T13:10:00.167Z,35.00
2019-05-13T13:12:34.153Z,33.30
2019-05-13T13:14:54.690Z,33.00
2019-05-13T13:17:24.083Z,33.20
2019-05-13T13:19:48.961Z,32.20
2019-05-13T13:22:15.050Z,33.50
2019-05-13T13:24:48.381Z,34.90
2019-05-13T13:27:16.137Z,33.60
2019-05-13T13:29:37.049Z,32.70
2019-05-13T13:32:03.291Z,32.20
2019-05-13T13:34:33.408Z,31.90
2019-05-13T13:36:57.512Z,32.90
2019-05-13T13:39:25.188Z,33.80
2019-05-13T13:41:53.422Z,32.30
2019-05-13T13:44:23.404Z,32.80
2019-05-13T13:46:49.540Z,33.40
2019-05-13T13:49:15.620Z,33.40
2019-05-13T13:51:44.560Z,32.50
2019-05-13T13:54:09.783Z,32.30
2019-05-13T13:56:35.946Z,32.00
2019-05-13T13:59:04.370Z,32.70
2019-05-13T14:01:33.321Z,30.90
2019-05-13T14:03:58.839Z,31.10
2019-05-13T14:07:22.666Z,31.70
2019-05-13T14:08:53.002Z,31.30
2019-05-13T14:11:19.306Z,32.10
2019-05-13T14:13:45.463Z,31.40
2019-05-13T14:16:24.645Z,30.40
2019-05-13T14:18:41.945Z,30.60
2019-05-13T14:21:07.664Z,29.20
2019-05-13T14:23:33.806Z,28.90
2019-05-13T14:25:59.991Z,29.50
2019-05-13T14:28:26.119Z,29.70
2019-05-13T14:30:52.265Z,29.90
2019-05-13T14:33:18.444Z,29.50
2019-05-13T14:35:44.565Z,29.10
2019-05-13T14:38:11.898Z,29.10
2019-05-13T14:40:38.118Z,29.60
2019-05-13T14:43:04.336Z,28.70
2019-05-13T14:45:31.842Z,28.40
2019-05-13T14:47:58.197Z,28.40
2019-05-13T14:50:24.292Z,30.20
2019-05-13T14:52:52.399Z,30.30
2019-05-13T14:55:18.345Z,31.70
2019-05-13T14:57:44.413Z,30.80
2019-05-13T15:00:11.427Z,31.10
2019-05-13T15:02:37.929Z,30.10
2019-05-13T15:05:04.697Z,28.80
2019-05-13T15:07:41.960Z,29.80
2019-05-13T15:10:07.223Z,30.40
2019-05-13T15:12:33.384Z,30.20
2019-05-13T15:15:01.532Z,30.20
2019-05-13T15:17:27.479Z,29.30
2019-05-13T15:19:53.646Z,29.60
2019-05-13T15:22:22.398Z,29.40
2019-05-13T15:24:47.662Z,29.60
2019-05-13T15:27:13.816Z,30.00
2019-05-13T15:29:41.814Z,30.30
2019-05-13T15:32:08.055Z,30.00
2019-05-13T15:34:34.132Z,29.50
2019-05-13T15:37:01.947Z,29.70
2019-05-13T15:39:28.409Z,30.30
2019-05-13T15:41:54.576Z,30.40
2019-05-13T15:44:22.005Z,30.00
2019-05-13T15:46:48.192Z,29.50
2019-05-13T15:49:14.379Z,30.50
2019-05-13T15:51:42.255Z,29.70
2019-05-13T15:54:08.566Z,29.70
2019-05-13T15:56:34.647Z,29.60
2019-05-13T15:59:01.952Z,29.30
2019-05-13T16:01:29.070Z,29.70
2019-05-13T16:03:55.193Z,29.60
2019-05-13T16:06:21.376Z,29.70
2019-05-13T16:08:47.574Z,28.60
2019-05-13T16:11:13.672Z,28.30
2019-05-13T16:13:40.074Z,28.10
2019-05-13T16:16:06.159Z,28.40
2019-05-13T16:18:32.223Z,28.70
2019-05-13T16:20:58.503Z,29.10
2019-05-13T16:23:24.543Z,29.60
2019-05-13T16:25:52.148Z,30.00
2019-05-13T16:28:18.422Z,30.40
2019-05-13T16:30:44.841Z,30.20
2019-05-13T16:33:12.172Z,30.60
2019-05-13T16:35:38.476Z,29.70
2019-05-13T16:38:04.775Z,29.40
2019-05-13T16:40:36.276Z,29.30
2019-05-13T16:43:01.221Z,30.20
2019-05-13T16:45:27.034Z,30.10
2019-05-13T16:47:57.362Z,30.00
2019-05-13T16:50:22.193Z,30.00
2019-05-13T16:52:48.530Z,31.80
2019-05-13T16:55:14.927Z,31.20
2019-05-13T16:57:42.349Z,30.80
2019-05-13T17:00:10.259Z,30.80
2019-05-13T17:02:36.473Z,31.20
2019-05-13T17:05:05.672Z,31.00
2019-05-13T17:07:31.894Z,31.40
2019-05-13T17:10:00.335Z,30.10
2019-05-13T17:12:26.188Z,30.80
2019-05-13T17:14:52.607Z,30.60
2019-05-13T17:17:18.714Z,32.40
2019-05-13T17:19:45.692Z,31.60
2019-05-13T17:22:11.931Z,31.50
2019-05-13T17:24:37.985Z,31.70
2019-05-13T17:27:04.275Z,31.40
2019-05-13T17:29:31.683Z,31.50
2019-05-13T17:31:58.055Z,30.90
2019-05-13T17:34:24.376Z,31.70
2019-05-13T17:36:51.925Z,32.10
2019-05-13T17:39:18.217Z,32.70
2019-05-13T17:41:44.491Z,32.00
2019-05-13T17:44:11.696Z,32.80
2019-05-13T17:46:38.012Z,33.50
2019-05-13T17:49:04.320Z,32.80
2019-05-13T17:51:30.467Z,33.00
2019-05-13T17:53:56.534Z,33.80
2019-05-13T17:56:22.796Z,33.60
2019-05-13T17:58:48.847Z,33.40
2019-05-13T18:01:15.223Z,32.90
2019-05-13T18:03:41.310Z,33.00
2019-05-13T18:06:07.790Z,34.00
2019-05-13T18:08:35.868Z,33.40
2019-05-13T18:11:02.442Z,33.00
2019-05-13T18:13:28.656Z,33.10
2019-05-13T18:15:54.832Z,33.40
2019-05-13T18:18:21.548Z,32.60
2019-05-13T18:20:47.945Z,32.70
2019-05-13T18:23:14.111Z,33.00
2019-05-13T18:25:42.217Z,32.70
2019-05-13T18:28:08.403Z,32.90
2019-05-13T18:30:34.489Z,32.80
2019-05-13T18:33:01.218Z,32.70
2019-05-13T18:35:27.477Z,32.80
2019-05-13T18:37:53.571Z,32.60
2019-05-13T18:40:21.795Z,33.30
2019-05-13T18:42:47.980Z,32.60
2019-05-13T18:45:14.268Z,32.70
2019-05-13T18:47:40.332Z,32.80
2019-05-13T18:50:07.376Z,32.60
2019-05-13T18:52:33.644Z,32.80
2019-05-13T18:55:01.851Z,32.10
2019-05-13T18:57:27.734Z,32.50
2019-05-13T18:59:53.864Z,32.20
2019-05-13T19:02:21.437Z,32.30
2019-05-13T19:04:47.761Z,31.60
2019-05-13T19:07:13.852Z,31.20
2019-05-13T19:09:41.783Z,30.90
2019-05-13T19:12:08.489Z,31.10
2019-05-13T19:14:34.549Z,31.70
2019-05-13T19:17:12.145Z,31.20
2019-05-13T19:19:37.603Z,31.60
2019-05-13T19:22:03.776Z,31.40
2019-05-13T19:24:31.231Z,31.60
2019-05-13T19:26:57.536Z,31.30
2019-05-13T19:29:26.076Z,31.10
2019-05-13T19:31:51.807Z,30.70
2019-05-13T19:34:18.124Z,31.10
2019-05-13T19:36:44.413Z,30.60
2019-05-13T19:39:11.431Z,30.60
2019-05-13T19:41:37.733Z,31.00
2019-05-13T19:44:04.334Z,31.10
2019-05-13T19:46:31.407Z,31.10
2019-05-13T19:48:57.704Z,31.10
2019-05-13T19:51:23.816Z,31.50
2019-05-13T19:53:51.697Z,31.50
2019-05-13T19:56:18.109Z,31.20
2019-05-13T19:58:44.162Z,31.70
2019-05-13T20:01:11.662Z,31.70
2019-05-13T20:03:38.142Z,31.90
2019-05-13T20:06:04.402Z,32.10
2019-05-13T20:08:32.081Z,32.30
2019-05-13T20:10:58.416Z,32.80
2019-05-13T20:13:24.826Z,32.70
2019-05-13T20:15:51.872Z,33.00
2019-05-13T20:18:18.135Z,32.60
2019-05-13T20:20:44.581Z,32.60
2019-05-13T20:23:12.086Z,32.90
2019-05-13T20:25:38.562Z,33.00
2019-05-13T20:28:04.802Z,32.70
2019-05-13T20:30:30.868Z,32.60
2019-05-13T20:32:57.118Z,32.90
2019-05-13T20:35:23.550Z,33.40
2019-05-13T20:37:51.586Z,33.10
2019-05-13T20:40:17.970Z,33.00
2019-05-13T20:42:44.200Z,33.20
2019-05-13T20:45:11.536Z,33.00
2019-05-13T20:47:37.986Z,33.50
2019-05-13T20:50:06.239Z,33.30
2019-05-13T20:52:32.417Z,33.30
2019-05-13T20:54:58.514Z,33.70
2019-05-13T20:57:26.026Z,33.90
2019-05-13T20:59:52.390Z,34.40
2019-05-13T21:02:18.457Z,34.10
2019-05-13T21:04:44.524Z,34.30
2019-05-13T21:07:10.576Z,34.10
2019-05-13T21:09:36.690Z,34.40
2019-05-13T21:12:02.989Z,34.60
2019-05-13T21:14:29.239Z,34.80
2019-05-13T21:16:55.290Z,34.60
2019-05-13T21:19:22.077Z,34.60
2019-05-13T21:21:48.288Z,34.50
2019-05-13T21:24:14.459Z,34.80
2019-05-13T21:26:41.995Z,34.90
2019-05-13T21:29:08.578Z,35.10
2019-05-13T21:31:34.804Z,34.80
2019-05-13T21:34:01.488Z,34.50
2019-05-13T21:36:27.683Z,34.90
2019-05-13T21:38:53.750Z,35.10
2019-05-13T21:41:21.162Z,35.20
2019-05-13T21:43:47.512Z,35.00
2019-05-13T21:46:13.713Z,36.00
2019-05-13T21:48:41.644Z,35.30
2019-05-13T21:51:07.921Z,36.10
2019-05-13T21:53:33.970Z,36.00
2019-05-13T21:56:02.327Z,35.80
2019-05-13T21:58:28.139Z,36.10
2019-05-13T22:00:56.477Z,36.00
2019-05-13T22:03:22.660Z,36.10
2019-05-13T22:05:51.262Z,36.30
2019-05-13T22:08:16.722Z,36.50
2019-05-13T22:10:43.822Z,36.50
2019-05-13T22:13:11.822Z,36.80
2019-05-13T22:15:38.557Z,37.00
2019-05-13T22:18:04.647Z,37.10
2019-05-13T22:20:33.076Z,37.30
2019-05-13T22:22:58.861Z,37.50
2019-05-13T22:25:25.026Z,37.70
2019-05-13T22:27:53.115Z,37.30
2019-05-13T22:30:19.770Z,37.50
2019-05-13T22:32:45.826Z,37.90
2019-05-13T22:35:12.000Z,38.00
2019-05-13T22:37:38.214Z,38.20
2019-05-13T22:40:04.521Z,38.20
2019-05-13T22:42:32.188Z,38.20
2019-05-13T22:44:58.594Z,38.20
2019-05-13T22:47:24.769Z,38.40
2019-05-13T22:49:51.065Z,38.50
2019-05-13T22:52:17.326Z,38.60
2019-05-13T22:54:43.387Z,38.80
2019-05-13T22:57:11.990Z,38.90
2019-05-13T22:59:37.508Z,38.90
2019-05-13T23:02:03.679Z,39.30
2019-05-13T23:04:31.439Z,39.00
2019-05-13T23:06:57.795Z,39.30
2019-05-13T23:09:23.965Z,39.40
2019-05-13T23:11:51.087Z,39.60
2019-05-13T23:14:17.342Z,39.80
2019-05-13T23:16:43.434Z,39.80
2019-05-13T23:19:11.109Z,40.20
2019-05-13T23:21:37.426Z,40.40
2019-05-13T23:24:03.607Z,40.70
2019-05-13T23:26:31.530Z,40.80
2019-05-13T23:28:57.715Z,40.80
2019-05-13T23:31:23.832Z,40.50
2019-05-13T23:33:49.936Z,41.20
2019-05-13T23:36:16.988Z,41.30
2019-05-13T23:38:43.076Z,41.00
2019-05-13T23:41:11.630Z,41.40
2019-05-13T23:43:37.980Z,41.50
2019-05-13T23:46:04.105Z,41.80
2019-05-13T23:48:32.119Z,41.90
2019-05-13T23:50:58.349Z,42.40
2019-05-13T23:53:24.558Z,42.10
2019-05-13T23:55:52.026Z,42.40
2019-05-13T23:58:18.597Z,42.50
